Time;durP1;ratioP1;P1;durP2;ratioP2;P2;SDS_P1;SDS_P2;PMS_P1;PMS_P2;Temp;Humidity;BMP_temperature;BMP_pressure;BME280_temperature;BME280_humidity;BME280_pressure;Samples;Min_cycle;Max_cycle;Signal;HPM_P1;HPM_P2
2022/03/09 00:01:05;;;;;;;3.42;1.80;;;;;;;19.93;36.62;97507.84;10102047;29;20041;-56
2022/03/09 00:06:24;;;;;;;2.65;1.92;;;;;;;19.92;36.28;97508.94;10095260;29;20081;-56
2022/03/09 00:11:43;;;;;;;2.72;1.70;;;;;;;19.91;36.57;97517.34;10095800;29;20501;-56
2022/03/09 00:17:03;;;;;;;2.58;1.67;;;;;;;19.88;36.40;97523.41;10103224;29;20108;-56
2022/03/09 00:22:22;;;;;;;2.42;1.58;;;;;;;19.87;36.35;97519.09;10094437;29;20048;-56
2022/03/09 00:27:41;;;;;;;2.33;1.75;;;;;;;19.85;36.59;97519.38;10096922;29;20049;-55
2022/03/09 00:33:01;;;;;;;2.42;1.90;;;;;;;19.83;36.43;97504.59;10096149;29;20144;-57
2022/03/09 00:38:20;;;;;;;2.60;1.80;;;;;;;19.81;36.31;97512.22;10095206;29;20497;-57
2022/03/09 00:43:40;;;;;;;2.83;1.80;;;;;;;19.79;36.28;97506.31;10094616;29;20056;-56
2022/03/09 00:48:59;;;;;;;2.40;1.60;;;;;;;19.77;36.11;97511.22;10094627;29;20068;-56
2022/03/09 00:54:18;;;;;;;2.00;1.52;;;;;;;19.74;36.25;97521.56;10098867;29;20408;-57
2022/03/09 00:59:37;;;;;;;2.70;1.80;;;;;;;19.74;36.16;97518.06;10087252;29;20056;-57
2022/03/09 01:04:57;;;;;;;2.13;1.80;;;;;;;19.71;36.11;97524.84;10096418;29;20041;-56
2022/03/09 01:10:18;;;;;;;2.45;1.80;;;;;;;19.70;36.32;97527.88;10099680;29;20136;-57
2022/03/09 01:15:37;;;;;;;2.22;1.67;;;;;;;19.69;36.10;97528.97;10100142;29;20053;-56
2022/03/09 01:20:57;;;;;;;2.58;2.00;;;;;;;19.66;36.05;97529.56;10101702;29;20057;-56
2022/03/09 01:26:16;;;;;;;2.22;1.80;;;;;;;19.64;36.24;97518.25;10092978;29;20504;-56
2022/03/09 01:31:35;;;;;;;2.80;2.00;;;;;;;19.63;36.17;97513.97;10114633;29;20458;-56
2022/03/09 01:36:55;;;;;;;2.28;1.58;;;;;;;19.60;35.91;97515.38;10103345;29;20072;-56
2022/03/09 01:42:15;;;;;;;2.72;1.70;;;;;;;19.59;36.16;97504.88;10095522;29;20113;-56
2022/03/09 01:47:36;;;;;;;2.70;1.90;;;;;;;19.58;36.11;97500.56;10101681;29;20413;-56
2022/03/09 01:52:55;;;;;;;3.33;1.80;;;;;;;19.55;36.12;97499.28;10098778;29;20053;-56
2022/03/09 01:58:15;;;;;;;2.08;1.70;;;;;;;19.53;36.22;97491.47;10095744;29;20065;-56
2022/03/09 02:03:35;;;;;;;2.15;1.95;;;;;;;19.51;36.13;97499.09;10097216;29;20053;-56
2022/03/09 02:14:38;;;;;;;1.93;1.70;;;;;;;19.48;36.12;97513.22;10089565;29;20053;-56
2022/03/09 02:19:58;;;;;;;3.30;2.20;;;;;;;19.47;36.12;97518.94;10098707;29;20537;-56
2022/03/09 02:25:18;;;;;;;2.88;2.33;;;;;;;19.45;36.06;97513.84;10102365;29;20041;-56
2022/03/09 02:30:37;;;;;;;1.92;1.63;;;;;;;19.43;36.33;97513.34;10098374;29;20045;-56
2022/03/09 02:35:56;;;;;;;3.08;2.30;;;;;;;19.42;36.06;97513.63;10097277;29;20057;-56
2022/03/09 02:41:16;;;;;;;2.50;1.88;;;;;;;19.40;36.07;97510.44;10098121;29;20065;-56
2022/03/09 02:46:36;;;;;;;2.38;2.08;;;;;;;19.38;36.10;97497.22;10100462;29;20104;-56
2022/03/09 02:51:55;;;;;;;2.47;2.05;;;;;;;19.36;36.19;97502.16;10097398;29;20105;-56
2022/03/09 02:57:15;;;;;;;2.55;2.17;;;;;;;19.33;36.21;97492.75;10106441;29;20525;-57
2022/03/09 03:02:38;;;;;;;2.50;2.00;;;;;;;19.32;36.09;97491.16;10095944;29;20053;-57
2022/03/09 03:07:58;;;;;;;2.65;2.08;;;;;;;19.30;36.31;97493.34;10095203;29;20061;-56
2022/03/09 03:13:17;;;;;;;2.58;2.30;;;;;;;19.29;36.07;97490.97;10102160;29;20109;-57
2022/03/09 03:18:37;;;;;;;2.38;2.17;;;;;;;19.28;36.21;97478.56;10102145;29;20055;-57
2022/03/09 03:23:56;;;;;;;3.08;2.38;;;;;;;19.25;36.06;97481.88;10097367;29;20060;-56
2022/03/09 03:29:16;;;;;;;2.97;2.15;;;;;;;19.24;36.20;97485.69;10095066;29;20052;-56
2022/03/09 03:34:35;;;;;;;2.90;2.47;;;;;;;19.23;36.19;97486.78;10095152;29;20056;-56
2022/03/09 03:39:55;;;;;;;2.97;2.40;;;;;;;19.22;36.17;97493.31;10093572;29;20093;-56
2022/03/09 03:45:15;;;;;;;2.55;2.17;;;;;;;19.20;36.05;97500.91;10099849;29;20063;-56
2022/03/09 03:50:35;;;;;;;2.85;2.42;;;;;;;19.17;36.19;97499.63;10099391;29;20057;-56
2022/03/09 03:55:54;;;;;;;2.40;2.17;;;;;;;19.15;36.10;97494.53;10096221;29;20120;-57
2022/03/09 04:01:13;;;;;;;2.70;2.40;;;;;;;19.13;36.12;97504.84;10093779;29;20060;-56
2022/03/09 04:06:33;;;;;;;3.03;2.45;;;;;;;19.12;36.03;97500.50;10096612;29;20079;-56
2022/03/09 04:11:52;;;;;;;2.78;2.30;;;;;;;19.11;36.14;97507.03;10091650;29;20053;-56
2022/03/09 04:17:11;;;;;;;2.40;2.20;;;;;;;19.09;36.01;97509.25;10097289;29;20077;-56
2022/03/09 04:22:31;;;;;;;3.20;2.45;;;;;;;19.08;36.14;97496.81;10100829;29;20052;-56
2022/03/09 04:27:50;;;;;;;3.67;2.42;;;;;;;19.05;36.26;97510.97;10094294;29;20071;-56
2022/03/09 04:33:10;;;;;;;2.60;2.40;;;;;;;19.05;36.18;97508.25;10102205;29;20100;-56
2022/03/09 04:38:30;;;;;;;3.15;2.40;;;;;;;19.02;36.09;97508.84;10112100;29;20061;-56
2022/03/09 04:43:49;;;;;;;2.50;2.20;;;;;;;19.02;36.19;97514.25;10097993;29;20515;-57
2022/03/09 04:49:09;;;;;;;2.78;2.40;;;;;;;19.01;36.07;97511.84;10124639;29;20069;-56
2022/03/09 04:54:28;;;;;;;4.07;2.60;;;;;;;19.01;36.17;97501.03;10100788;29;20491;-56
2022/03/09 04:59:47;;;;;;;2.45;2.25;;;;;;;19.01;36.05;97506.44;10111085;29;20120;-56
2022/03/09 05:05:06;;;;;;;3.28;2.40;;;;;;;19.01;36.11;97507.25;10121394;29;20049;-57
2022/03/09 05:10:26;;;;;;;2.50;2.30;;;;;;;19.01;36.07;97515.34;10121014;29;20414;-56
2022/03/09 05:15:45;;;;;;;3.33;2.40;;;;;;;19.03;35.88;97513.13;10103055;29;20057;-56
2022/03/09 05:21:05;;;;;;;2.72;2.33;;;;;;;19.06;35.99;97522.56;10107656;29;20065;-57
2022/03/09 05:26:24;;;;;;;2.40;2.20;;;;;;;19.07;36.03;97522.25;10103564;29;20504;-57
2022/03/09 05:31:44;;;;;;;5.18;2.80;;;;;;;19.10;36.24;97524.34;10095316;29;21307;-57
2022/03/09 05:37:04;;;;;;;2.92;2.60;;;;;;;19.12;36.35;97524.03;10096246;29;20064;-56
2022/03/09 05:42:23;;;;;;;3.20;2.75;;;;;;;19.13;36.19;97523.72;10096314;29;20056;-57
2022/03/09 05:47:42;;;;;;;3.13;2.83;;;;;;;19.14;36.34;97533.41;10104042;29;20379;-56
2022/03/09 05:53:02;;;;;;;3.47;2.92;;;;;;;19.16;36.56;97543.94;10100395;29;20112;-56
2022/03/09 05:58:21;;;;;;;3.72;2.78;;;;;;;19.19;36.69;97547.91;10097154;29;20064;-56
2022/03/09 06:03:41;;;;;;;3.33;2.90;;;;;;;19.20;36.63;97547.63;10094890;29;20049;-55
2022/03/09 06:09:00;;;;;;;13.30;10.15;;;;;;;18.95;31.87;97546.25;10094724;29;20064;-56
2022/03/09 06:14:20;;;;;;;5.53;3.58;;;;;;;18.98;35.84;97551.06;10099992;29;20061;-56
2022/03/09 06:19:39;;;;;;;7.63;4.00;;;;;;;19.08;35.78;97555.44;10095537;29;20065;-56
2022/03/09 06:24:59;;;;;;;6.13;4.22;;;;;;;19.19;35.97;97556.03;10096803;29;20057;-56
2022/03/09 06:30:19;;;;;;;20.73;15.85;;;;;;;18.63;25.24;97560.66;10093742;29;20053;-56
2022/03/09 06:35:39;;;;;;;24.30;18.30;;;;;;;17.68;24.83;97567.09;10092337;29;20061;-56
2022/03/09 06:40:58;;;;;;;20.05;13.20;;;;;;;18.12;30.45;97570.44;10117900;29;20045;-57
2022/03/09 06:46:17;;;;;;;20.95;13.32;;;;;;;18.55;31.01;97575.63;10096106;29;20048;-56
2022/03/09 06:51:38;;;;;;;18.58;12.70;;;;;;;18.78;31.14;97577.34;10109267;29;20057;-57
2022/03/09 06:56:58;;;;;;;20.45;12.30;;;;;;;18.95;31.18;97573.25;10095527;29;20049;-56
2022/03/09 07:02:17;;;;;;;18.45;12.45;;;;;;;19.05;31.44;97572.25;10099982;29;20606;-56
2022/03/09 07:07:37;;;;;;;18.75;12.57;;;;;;;19.13;31.55;97582.34;10093594;29;20509;-57
2022/03/09 07:12:57;;;;;;;21.25;12.20;;;;;;;19.19;31.82;97578.44;10092700;29;20117;-56
2022/03/09 07:18:16;;;;;;;17.17;12.02;;;;;;;19.25;32.14;97581.81;10098055;29;20536;-57
2022/03/09 07:23:36;;;;;;;17.33;11.52;;;;;;;19.28;32.20;97592.03;10095480;29;20100;-56
2022/03/09 07:28:56;;;;;;;16.58;11.48;;;;;;;19.30;32.47;97595.22;10097280;29;20048;-57
2022/03/09 07:34:16;;;;;;;17.83;10.93;;;;;;;19.32;32.75;97587.63;10096162;29;20045;-56
2022/03/09 07:39:37;;;;;;;15.00;10.70;;;;;;;19.34;32.83;97596.22;10101592;29;20057;-57
2022/03/09 07:44:56;;;;;;;14.02;10.00;;;;;;;19.36;33.12;97602.13;10095166;29;20057;-57
2022/03/09 07:50:15;;;;;;;15.82;10.60;;;;;;;19.38;33.18;97593.72;10093292;29;20506;-57
2022/03/09 07:55:35;;;;;;;15.65;10.00;;;;;;;19.40;33.31;97600.41;10090304;29;20556;-57
2022/03/09 08:00:54;;;;;;;16.73;10.05;;;;;;;19.40;33.44;97586.91;10099484;29;20515;-57
2022/03/09 08:06:13;;;;;;;14.23;9.70;;;;;;;19.42;33.71;97594.69;10094024;29;20635;-57
2022/03/09 08:11:33;;;;;;;14.82;9.70;;;;;;;19.42;33.83;97586.59;10094408;29;20053;-57
2022/03/09 08:16:53;;;;;;;13.07;9.38;;;;;;;19.43;33.88;97589.00;10090725;29;20067;-57
2022/03/09 08:22:12;;;;;;;13.32;9.20;;;;;;;19.43;34.10;97593.63;10100350;29;20191;-57
2022/03/09 08:27:32;;;;;;;10.45;8.20;;;;;;;19.44;34.23;97596.00;10101656;29;20075;-56
2022/03/09 08:32:53;;;;;;;12.70;8.77;;;;;;;19.44;34.39;97595.19;10110078;29;20053;-57
2022/03/09 08:38:12;;;;;;;11.93;8.45;;;;;;;19.44;34.35;97598.69;10092569;29;20057;-57
2022/03/09 08:43:31;;;;;;;11.85;8.02;;;;;;;19.44;34.49;97601.38;10095610;29;20049;-56
2022/03/09 08:48:53;;;;;;;9.90;7.97;;;;;;;19.44;34.55;97593.28;10103196;29;20037;-56
2022/03/09 08:54:12;;;;;;;12.93;7.72;;;;;;;19.46;34.67;97590.28;10094461;29;20428;-57
2022/03/09 08:59:32;;;;;;;10.45;7.40;;;;;;;19.46;34.71;97599.19;10091863;29;20068;-56
2022/03/09 09:04:52;;;;;;;9.75;6.30;;;;;;;19.45;32.40;97594.91;10088866;29;20057;-57
2022/03/09 09:10:11;;;;;;;10.43;7.00;;;;;;;19.41;34.00;97596.63;10095481;29;20075;-57
2022/03/09 09:15:31;;;;;;;10.77;7.43;;;;;;;19.43;33.86;97604.41;10096920;29;20057;-57
2022/03/09 09:20:50;;;;;;;11.65;7.25;;;;;;;19.41;33.89;97602.00;10092782;29;20113;-56
2022/03/09 09:26:13;;;;;;;10.38;7.43;;;;;;;19.42;34.16;97595.50;10098936;29;20595;-56
2022/03/09 09:31:33;;;;;;;10.73;6.70;;;;;;;19.41;33.95;97591.22;10108138;29;20489;-57
2022/03/09 09:36:53;;;;;;;9.32;7.00;;;;;;;19.40;33.25;97584.19;10112570;29;20060;-57
2022/03/09 09:42:15;;;;;;;9.85;6.45;;;;;;;19.39;33.27;97598.81;10094756;29;20064;-55
2022/03/09 09:47:35;;;;;;;8.38;6.88;;;;;;;19.40;32.20;97589.59;10095483;29;20048;-57
2022/03/09 09:52:55;;;;;;;8.90;6.32;;;;;;;19.40;31.92;97592.28;10109534;29;20108;-57
2022/03/09 09:58:14;;;;;;;10.45;7.10;;;;;;;19.40;30.69;97594.22;10098477;29;20057;-56
2022/03/09 10:03:34;;;;;;;7.88;6.25;;;;;;;19.38;30.80;97591.81;10088619;29;20061;-57
2022/03/09 10:09:03;;;;;;;8.23;6.30;;;;;;;19.36;30.73;97589.41;10092107;29;20412;-56
2022/03/09 10:14:48;;;;;;;8.35;6.30;;;;;;;19.35;29.63;97584.31;10105179;29;20056;-57
2022/03/09 10:20:10;;;;;;;7.63;5.97;;;;;;;19.35;29.68;97585.13;10087073;29;20081;-57
2022/03/09 10:25:29;;;;;;;8.52;5.93;;;;;;;19.33;29.08;97583.81;10096224;29;20049;-57
2022/03/09 10:30:48;;;;;;;8.38;5.72;;;;;;;19.31;29.01;97577.94;10085975;29;20175;-56
2022/03/09 10:36:15;;;;;;;7.20;5.82;;;;;;;19.31;28.71;97569.81;10086463;29;20060;-57
2022/03/09 10:41:34;;;;;;;8.32;5.80;;;;;;;19.20;26.19;97568.44;10093329;29;20113;-57
2022/03/09 10:46:54;;;;;;;7.18;5.93;;;;;;;19.17;27.41;97564.44;10093268;29;20520;-57
2022/03/09 10:52:13;;;;;;;6.57;5.05;;;;;;;19.07;24.35;97543.84;10090192;29;20124;-57
2022/03/09 10:57:33;;;;;;;7.25;5.05;;;;;;;18.99;24.69;97549.94;10093463;29;20056;-57
2022/03/09 11:02:52;;;;;;;6.13;5.07;;;;;;;18.97;24.50;97549.44;10098216;29;20045;-57
2022/03/09 11:08:12;;;;;;;6.28;4.85;;;;;;;18.96;24.62;97537.06;10091802;29;20055;-56
2022/03/09 11:13:33;;;;;;;6.03;4.80;;;;;;;18.95;24.29;97530.88;10095604;29;20057;-56
2022/03/09 11:18:54;;;;;;;7.78;4.97;;;;;;;18.92;24.72;97531.47;10105707;29;20092;-56
2022/03/09 11:24:15;;;;;;;7.95;4.93;;;;;;;18.91;24.38;97529.06;10115331;29;20057;-57
2022/03/09 11:29:36;;;;;;;6.80;4.80;;;;;;;18.90;24.50;97532.88;10095059;29;20045;-56
2022/03/09 11:34:56;;;;;;;6.32;4.95;;;;;;;18.87;23.75;97530.75;10096283;29;20049;-57
2022/03/09 11:40:16;;;;;;;7.15;5.53;;;;;;;18.81;22.93;97521.97;10094668;29;20057;-57
2022/03/09 11:45:35;;;;;;;6.00;5.40;;;;;;;18.72;22.44;97521.84;10084064;29;20099;-56
2022/03/09 11:51:04;;;;;;;6.93;5.57;;;;;;;18.64;22.30;97527.97;10096169;29;20048;-56
2022/03/09 11:56:37;;;;;;;8.25;5.95;;;;;;;18.56;21.68;97515.97;10115917;29;20064;-57
2022/03/09 12:02:02;;;;;;;7.80;5.60;;;;;;;18.51;21.86;97512.56;10098537;29;20060;-57
2022/03/09 12:07:38;;;;;;;5.53;4.55;;;;;;;18.45;21.83;97511.88;10102332;29;20485;-56
2022/03/09 12:13:16;;;;;;;7.00;5.50;;;;;;;18.41;21.77;97515.47;10089884;29;20057;-56
2022/03/09 12:19:04;;;;;;;6.72;5.50;;;;;;;18.38;22.20;97514.97;10094144;29;20049;-57
2022/03/09 12:24:25;;;;;;;8.57;6.38;;;;;;;18.38;22.02;97508.75;10088954;29;20504;-56
2022/03/09 12:29:44;;;;;;;9.82;6.65;;;;;;;18.35;22.29;97507.47;10114085;29;20079;-56
2022/03/09 12:35:05;;;;;;;8.98;6.43;;;;;;;18.34;22.38;97500.44;10100362;29;20065;-56
2022/03/09 12:40:34;;;;;;;6.03;5.30;;;;;;;18.33;22.55;97504.25;10101184;29;20056;-56
2022/03/09 12:45:55;;;;;;;5.75;4.75;;;;;;;18.33;22.58;97506.97;10102301;29;20108;-56
2022/03/09 12:51:14;;;;;;;6.70;5.10;;;;;;;18.32;22.13;97489.16;10111452;29;20155;-56
2022/03/09 12:56:34;;;;;;;7.07;5.40;;;;;;;18.29;22.20;97481.69;10100507;29;20068;-56
2022/03/09 13:01:54;;;;;;;5.65;4.90;;;;;;;18.26;22.10;97484.97;10106956;29;20119;-56
2022/03/09 13:07:14;;;;;;;6.65;4.95;;;;;;;18.26;22.26;97482.28;10116187;29;20501;-56
2022/03/09 13:12:35;;;;;;;8.77;4.95;;;;;;;18.26;22.34;97487.66;10101289;29;20053;-56
2022/03/09 13:17:55;;;;;;;8.50;4.60;;;;;;;18.25;22.06;97480.69;10102324;29;20060;-56
2022/03/09 13:23:26;;;;;;;6.35;4.32;;;;;;;18.25;22.46;97469.91;10109861;29;20530;-56
2022/03/09 13:28:48;;;;;;;5.63;3.85;;;;;;;18.24;22.50;97479.06;10113289;29;20063;-57
2022/03/09 13:34:19;;;;;;;4.95;3.28;;;;;;;18.24;23.11;97470.97;10086365;29;20056;-56
2022/03/09 13:39:40;;;;;;;4.53;3.30;;;;;;;18.26;22.68;97468.78;10100344;29;20052;-56
2022/03/09 13:45:07;;;;;;;3.83;3.30;;;;;;;18.25;22.62;97453.72;10097238;29;20052;-56
2022/03/09 13:50:32;;;;;;;3.63;2.92;;;;;;;18.24;22.86;97462.91;10100055;29;20056;-56
2022/03/09 13:55:52;;;;;;;3.65;2.60;;;;;;;18.23;22.78;97460.50;10099967;29;20113;-56
2022/03/09 14:01:14;;;;;;;4.47;3.17;;;;;;;18.20;22.61;97456.50;10097050;29;20394;-57
2022/03/09 14:06:35;;;;;;;3.72;2.80;;;;;;;18.20;23.11;97451.09;10115194;29;20049;-56
2022/03/09 14:11:54;;;;;;;3.10;2.80;;;;;;;18.18;23.45;97448.69;10096135;29;20061;-56
2022/03/09 14:17:15;;;;;;;6.18;2.60;;;;;;;18.17;23.00;97444.44;10098203;29;20413;-56
2022/03/09 14:22:48;;;;;;;4.75;3.40;;;;;;;18.17;23.22;97447.13;10047502;29;20045;-56
2022/03/09 14:28:08;;;;;;;6.10;3.05;;;;;;;18.15;23.13;97443.09;10062169;29;20058;-60
2022/03/09 14:33:28;;;;;;;4.65;2.75;;;;;;;18.13;24.47;97434.50;10058889;29;20106;-57
2022/03/09 14:38:47;;;;;;;4.43;3.00;;;;;;;18.14;25.33;97442.31;10057223;29;20462;-55
2022/03/09 14:44:07;;;;;;;5.57;2.85;;;;;;;18.20;26.41;97440.31;10056875;29;20053;-56
2022/03/09 14:49:26;;;;;;;7.20;2.63;;;;;;;18.21;26.58;97439.22;10061530;29;20066;-59
2022/03/09 14:54:46;;;;;;;4.85;2.22;;;;;;;18.26;27.04;97443.72;10057903;29;20082;-63
2022/03/09 15:00:06;;;;;;;2.42;2.05;;;;;;;18.32;27.72;97443.31;10053409;29;20061;-56
2022/03/09 15:05:25;;;;;;;4.88;2.30;;;;;;;18.36;28.30;97440.81;10064758;29;20072;-57
2022/03/09 15:10:44;;;;;;;3.53;2.10;;;;;;;18.41;28.79;97442.63;10054265;29;20656;-56
2022/03/09 15:16:04;;;;;;;6.30;2.25;;;;;;;18.45;28.97;97441.72;10042402;29;20054;-57
2022/03/09 15:21:24;;;;;;;3.17;2.10;;;;;;;18.49;29.55;97447.31;10084993;29;20053;-55
2022/03/09 15:26:43;;;;;;;7.07;2.28;;;;;;;18.51;29.35;97447.81;10093553;29;20053;-59
2022/03/09 15:32:03;;;;;;;3.13;1.90;;;;;;;18.56;29.63;97455.78;10097468;29;20056;-58
2022/03/09 15:37:22;;;;;;;5.22;2.03;;;;;;;18.62;29.73;97451.91;10109431;29;20067;-58
2022/03/09 15:42:42;;;;;;;4.38;2.30;;;;;;;18.67;30.33;97451.78;10103017;29;20117;-59
2022/03/09 15:48:02;;;;;;;3.47;1.80;;;;;;;18.71;30.90;97450.06;10094039;29;20520;-58
2022/03/09 15:53:22;;;;;;;3.63;1.77;;;;;;;18.76;30.84;97457.28;10091997;29;20064;-58
2022/03/09 15:58:41;;;;;;;13.93;8.82;;;;;;;18.81;31.53;97448.28;10096709;29;20049;-58
2022/03/09 16:04:01;;;;;;;20.42;8.32;;;;;;;18.85;32.20;97455.47;10096066;29;20049;-58
2022/03/09 16:09:20;;;;;;;30.95;9.88;;;;;;;18.89;32.23;97464.56;10110194;29;20057;-57
2022/03/09 16:14:40;;;;;;;24.63;8.05;;;;;;;18.96;32.51;97472.25;10094772;29;20116;-57
2022/03/09 16:19:59;;;;;;;20.80;6.93;;;;;;;19.00;32.87;97469.75;10092853;29;20080;-58
2022/03/09 16:25:19;;;;;;;18.58;6.18;;;;;;;19.03;33.01;97464.53;10091604;29;20048;-58
2022/03/09 16:30:39;;;;;;;24.15;6.88;;;;;;;19.08;33.60;97464.41;10093145;29;20056;-56
2022/03/09 16:35:59;;;;;;;22.25;6.07;;;;;;;19.11;33.84;97468.41;10097201;29;20052;-58
2022/03/09 16:41:21;;;;;;;17.52;5.03;;;;;;;19.16;34.25;97477.19;10103299;29;20049;-56
2022/03/09 16:46:41;;;;;;;12.93;5.32;;;;;;;19.20;34.75;97482.00;10116054;29;20528;-57
2022/03/09 16:52:00;;;;;;;25.88;13.55;;;;;;;19.24;35.24;97483.00;10095354;29;20045;-57
2022/03/09 16:57:20;;;;;;;24.38;12.15;;;;;;;19.28;35.36;97483.97;10093627;29;20061;-56
2022/03/09 17:02:40;;;;;;;19.08;10.57;;;;;;;19.32;35.67;97485.75;10096294;29;20049;-56
2022/03/09 17:08:00;;;;;;;19.35;10.27;;;;;;;19.34;35.74;97490.84;10079166;29;20401;-56
2022/03/09 17:13:19;;;;;;;17.40;8.95;;;;;;;19.39;36.03;97492.66;10100478;29;20048;-58
2022/03/09 17:18:39;;;;;;;17.42;8.00;;;;;;;19.44;36.32;97498.72;10094377;29;20072;-56
2022/03/09 17:23:58;;;;;;;14.15;7.05;;;;;;;19.50;36.38;97508.31;10093757;29;20045;-56
2022/03/09 17:29:18;;;;;;;15.93;7.30;;;;;;;19.53;36.84;97513.09;10092198;29;20466;-56
2022/03/09 17:34:37;;;;;;;14.98;6.97;;;;;;;19.56;36.80;97520.59;10090225;29;20057;-57
2022/03/09 17:39:57;;;;;;;14.95;6.78;;;;;;;19.61;37.03;97535.09;10098325;29;20041;-56
2022/03/09 17:45:17;;;;;;;12.27;6.20;;;;;;;19.65;37.19;97536.88;10095446;29;20057;-53
2022/03/09 17:50:36;;;;;;;13.00;6.82;;;;;;;19.68;37.05;97546.25;10095117;29;20500;-57
2022/03/09 17:55:56;;;;;;;10.35;6.10;;;;;;;19.70;34.02;97555.69;10085275;29;20820;-58
2022/03/09 18:01:15;;;;;;;13.35;6.45;;;;;;;19.69;35.36;97553.28;10090786;29;20041;-60
2022/03/09 18:06:38;;;;;;;11.57;5.63;;;;;;;19.69;35.85;97558.69;10086282;29;20056;-56
2022/03/09 18:12:00;;;;;;;11.65;5.05;;;;;;;19.71;36.14;97549.19;10091928;29;20055;-55
2022/03/09 18:17:19;;;;;;;13.43;5.82;;;;;;;19.73;36.14;97543.47;10078076;29;20085;-53
2022/03/09 18:22:39;;;;;;;11.48;5.32;;;;;;;19.77;36.34;97549.06;10090820;29;20540;-60
2022/03/09 18:27:59;;;;;;;9.65;5.07;;;;;;;19.81;36.52;97552.75;10089754;29;20129;-56
2022/03/09 18:33:18;;;;;;;12.77;5.18;;;;;;;19.81;36.83;97550.06;10094926;29;20048;-55
2022/03/09 18:38:39;;;;;;;14.63;5.40;;;;;;;19.82;36.81;97557.09;10090589;29;20045;-57
2022/03/09 18:43:58;;;;;;;12.65;5.18;;;;;;;19.83;37.41;97575.69;10093850;29;20041;-58
2022/03/09 18:49:18;;;;;;;10.18;5.07;;;;;;;19.83;37.46;97575.69;10088014;29;20124;-56
2022/03/09 18:54:38;;;;;;;10.90;4.78;;;;;;;19.84;37.58;97577.28;10100412;29;20057;-57
2022/03/09 18:59:57;;;;;;;10.75;4.68;;;;;;;19.84;37.65;97577.28;10081817;29;20072;-59
2022/03/09 19:05:17;;;;;;;10.35;4.28;;;;;;;19.85;37.77;97586.19;10091286;29;20053;-60
2022/03/09 19:10:37;;;;;;;9.30;4.75;;;;;;;19.84;38.25;97592.72;10097398;29;20048;-61
2022/03/09 19:15:57;;;;;;;10.73;4.20;;;;;;;19.83;38.44;97578.38;10089214;29;20061;-56
2022/03/09 19:21:16;;;;;;;10.40;4.80;;;;;;;19.83;38.84;97575.69;10067271;29;20053;-55
2022/03/09 19:26:36;;;;;;;6.13;4.15;;;;;;;19.83;39.02;97586.50;10077509;29;20049;-55
2022/03/09 19:31:55;;;;;;;7.30;4.50;;;;;;;19.84;39.33;97590.81;10092692;29;20049;-56
2022/03/09 19:37:15;;;;;;;10.82;4.70;;;;;;;19.84;39.54;97598.91;10094975;29;20105;-56
2022/03/09 19:42:35;;;;;;;14.50;4.70;;;;;;;19.84;39.68;97595.44;10092197;29;20108;-55
2022/03/09 19:47:54;;;;;;;9.15;4.20;;;;;;;19.83;40.01;97602.72;10092239;29;20057;-54
2022/03/09 19:53:14;;;;;;;7.88;4.13;;;;;;;19.83;39.98;97600.00;10090956;29;20049;-56
2022/03/09 19:58:33;;;;;;;8.48;4.75;;;;;;;19.82;40.00;97595.72;10088972;29;20109;-56
2022/03/09 20:03:52;;;;;;;10.00;4.20;;;;;;;19.84;40.25;97608.94;10088396;29;20053;-57
2022/03/09 20:09:14;;;;;;;8.65;4.07;;;;;;;19.82;40.36;97601.13;10091636;29;20505;-57
2022/03/09 20:14:33;;;;;;;8.77;3.97;;;;;;;19.83;40.69;97608.13;10089187;29;20504;-57
2022/03/09 20:19:53;;;;;;;9.90;4.00;;;;;;;19.81;40.50;97607.63;10081927;29;20122;-57
2022/03/09 20:25:12;;;;;;;9.13;4.20;;;;;;;19.82;40.90;97611.16;10089162;29;20055;-56
2022/03/09 20:30:32;;;;;;;7.22;3.60;;;;;;;19.82;40.98;97624.69;10064304;29;20062;-56
2022/03/09 20:35:51;;;;;;;7.70;4.20;;;;;;;19.79;41.18;97620.66;10078943;29;20064;-56
2022/03/09 20:41:11;;;;;;;6.65;4.13;;;;;;;19.78;41.03;97621.78;10087300;29;20049;-56
2022/03/09 20:46:31;;;;;;;8.60;4.00;;;;;;;19.79;41.11;97627.97;10089751;29;20449;-56
2022/03/09 20:51:51;;;;;;;7.65;4.20;;;;;;;19.78;41.26;97640.69;10086660;29;20068;-56
2022/03/09 20:57:11;;;;;;;10.15;4.53;;;;;;;19.77;41.04;97633.69;10077218;29;20061;-56
2022/03/09 21:02:31;;;;;;;9.32;4.20;;;;;;;19.78;41.04;97650.69;10078870;29;20050;-56
2022/03/09 21:07:50;;;;;;;8.20;4.78;;;;;;;19.76;40.82;97642.91;10083093;29;20068;-57
2022/03/09 21:13:11;;;;;;;9.02;4.78;;;;;;;19.76;40.71;97640.22;10094279;29;20041;-56
2022/03/09 21:18:30;;;;;;;9.55;4.70;;;;;;;19.74;40.81;97656.72;10090250;29;20067;-58
2022/03/09 21:23:51;;;;;;;9.88;4.63;;;;;;;19.76;40.77;97656.44;10096380;29;20396;-57
2022/03/09 21:29:11;;;;;;;10.75;4.95;;;;;;;19.74;40.68;97661.34;10093786;29;20057;-57
2022/03/09 21:34:30;;;;;;;9.63;4.85;;;;;;;19.74;41.18;97658.63;10094197;29;20049;-57
2022/03/09 21:39:50;;;;;;;8.00;4.38;;;;;;;19.72;41.41;97656.22;10097028;29;20139;-58
2022/03/09 21:45:10;;;;;;;8.38;4.22;;;;;;;19.72;41.33;97663.56;10097600;29;20087;-57
2022/03/09 21:50:30;;;;;;;8.38;4.40;;;;;;;19.70;41.31;97663.81;10096569;29;20061;-58
2022/03/09 21:55:49;;;;;;;6.85;3.72;;;;;;;19.69;41.40;97658.72;10095045;29;20481;-58
2022/03/09 22:01:09;;;;;;;8.77;4.30;;;;;;;19.68;41.43;97654.38;10100029;29;20052;-57
2022/03/09 22:06:28;;;;;;;9.80;4.13;;;;;;;19.67;41.52;97669.03;10100017;29;20057;-57
2022/03/09 22:11:47;;;;;;;7.72;4.00;;;;;;;19.67;41.35;97669.03;10096193;29;20064;-57
2022/03/09 22:17:07;;;;;;;5.93;3.85;;;;;;;19.66;41.48;97673.66;10092339;29;20057;-58
2022/03/09 22:22:26;;;;;;;6.85;4.07;;;;;;;19.65;41.47;97679.34;10093096;29;20091;-58
2022/03/09 22:27:47;;;;;;;5.38;3.72;;;;;;;19.63;41.25;97678.84;10094002;29;20053;-58
2022/03/09 22:33:07;;;;;;;7.28;4.18;;;;;;;19.62;41.36;97677.22;10092222;29;20105;-57
2022/03/09 22:38:26;;;;;;;6.32;3.85;;;;;;;19.62;41.41;97682.63;10096726;29;20060;-57
2022/03/09 22:43:46;;;;;;;6.68;3.90;;;;;;;19.60;41.32;97680.25;10095936;29;20394;-57
2022/03/09 22:49:05;;;;;;;6.47;3.72;;;;;;;19.59;41.27;97691.38;10093558;29;20049;-57
2022/03/09 22:54:24;;;;;;;5.72;3.45;;;;;;;19.57;41.36;97688.97;10093474;29;20085;-57
2022/03/09 22:59:43;;;;;;;6.32;3.80;;;;;;;19.55;41.20;97691.97;10089486;29;20049;-57
2022/03/09 23:10:44;;;;;;;5.40;3.50;;;;;;;19.53;41.16;97699.56;10096442;29;20560;-57
2022/03/09 23:16:04;;;;;;;5.00;3.33;;;;;;;19.52;41.23;97695.28;10097099;29;20045;-57
2022/03/09 23:21:24;;;;;;;5.57;3.22;;;;;;;19.51;41.22;97699.06;10078935;29;20508;-57
2022/03/09 23:26:43;;;;;;;5.75;3.42;;;;;;;19.49;41.00;97690.47;10086588;29;20111;-57
2022/03/09 23:32:03;;;;;;;5.55;3.10;;;;;;;19.49;41.05;97695.88;10099977;29;20053;-57
2022/03/09 23:37:23;;;;;;;4.28;3.22;;;;;;;19.47;41.07;97695.38;10097839;29;20057;-57
2022/03/09 23:42:42;;;;;;;4.95;3.08;;;;;;;19.45;40.89;97697.59;10098377;29;20052;-57
2022/03/09 23:48:02;;;;;;;3.78;3.15;;;;;;;19.45;40.91;97703.00;10102500;29;20052;-57
2022/03/09 23:53:22;;;;;;;5.43;3.40;;;;;;;19.43;40.91;97710.59;10088182;29;20484;-57
2022/03/09 23:58:41;;;;;;;5.00;2.90;;;;;;;19.42;40.85;97711.69;10097883;29;20056;-57
